createdAt,value
2022-08-19T00:01:59.267Z,20.78
2022-08-19T00:04:30.323Z,20.68
2022-08-19T00:06:56.967Z,20.72
2022-08-19T00:09:25.284Z,20.58
2022-08-19T00:11:53.187Z,20.40
2022-08-19T00:14:21.671Z,20.32
2022-08-19T00:16:49.190Z,20.30
2022-08-19T00:19:17.062Z,20.28
2022-08-19T00:21:44.151Z,20.34
2022-08-19T00:24:12.729Z,20.43
2022-08-19T00:26:39.839Z,20.21
2022-08-19T00:29:12.555Z,20.11
2022-08-19T00:31:39.255Z,20.21
2022-08-19T00:34:05.708Z,20.32
2022-08-19T00:36:33.706Z,20.38
2022-08-19T00:39:00.315Z,20.30
2022-08-19T00:41:27.319Z,20.30
2022-08-19T00:44:07.616Z,20.29
2022-08-19T00:46:37.538Z,20.29
2022-08-19T00:49:10.762Z,20.38
2022-08-19T00:51:37.543Z,20.54
2022-08-19T00:54:04.506Z,20.70
2022-08-19T00:56:32.008Z,20.71
2022-08-19T00:58:59.771Z,20.69
2022-08-19T01:01:27.061Z,20.61
2022-08-19T01:03:57.835Z,20.63
2022-08-19T01:06:26.254Z,20.74
2022-08-19T01:08:52.831Z,20.66
2022-08-19T01:11:19.363Z,20.69
2022-08-19T01:13:48.896Z,20.73
2022-08-19T01:16:19.785Z,20.79
2022-08-19T01:18:46.206Z,20.80
2022-08-19T01:21:41.563Z,20.77
2022-08-19T01:24:08.027Z,20.70
2022-08-19T01:26:40.674Z,20.67
2022-08-19T01:29:10.366Z,20.59
2022-08-19T01:31:40.277Z,20.56
2022-08-19T01:34:08.402Z,20.47
2022-08-19T01:36:48.136Z,20.42
2022-08-19T01:39:20.227Z,20.38
2022-08-19T01:41:47.636Z,20.32
2022-08-19T01:44:19.070Z,20.34
2022-08-19T01:46:48.443Z,20.29
2022-08-19T01:49:15.918Z,20.32
2022-08-19T01:51:42.427Z,20.33
2022-08-19T01:54:10.511Z,20.31
2022-08-19T01:56:37.314Z,20.29
2022-08-19T01:59:09.453Z,20.35
2022-08-19T02:01:36.047Z,20.34
2022-08-19T02:04:03.320Z,20.33
2022-08-19T02:06:30.761Z,20.29
2022-08-19T02:08:57.791Z,20.31
2022-08-19T02:11:32.825Z,20.35
2022-08-19T02:14:00.338Z,20.42
2022-08-19T02:16:27.062Z,20.46
2022-08-19T02:18:53.669Z,20.44
2022-08-19T02:21:26.525Z,20.42
2022-08-19T02:23:53.365Z,20.58
2022-08-19T02:26:20.345Z,20.55
2022-08-19T02:28:47.219Z,20.63
2022-08-19T02:31:19.213Z,20.68
2022-08-19T02:33:47.357Z,20.80
2022-08-19T02:36:15.523Z,20.93
2022-08-19T02:38:42.984Z,20.75
2022-08-19T02:41:26.869Z,20.64
2022-08-19T02:44:18.375Z,20.66
2022-08-19T02:46:42.541Z,20.66
2022-08-19T02:49:09.476Z,20.72
2022-08-19T02:51:39.972Z,20.79
2022-08-19T02:54:08.969Z,20.73
2022-08-19T02:56:37.787Z,20.71
2022-08-19T02:59:12.022Z,20.72
2022-08-19T03:01:41.410Z,20.72
2022-08-19T03:04:10.737Z,20.64
2022-08-19T03:06:40.812Z,20.72
2022-08-19T03:09:08.034Z,20.71
2022-08-19T03:11:34.946Z,20.73
2022-08-19T03:14:03.446Z,20.77
2022-08-19T03:16:33.560Z,20.87
2022-08-19T03:19:01.112Z,20.74
2022-08-19T03:21:30.374Z,20.73
2022-08-19T03:24:03.892Z,20.85
2022-08-19T03:26:31.025Z,20.91
2022-08-19T03:29:02.231Z,20.86
2022-08-19T03:31:43.664Z,20.83
2022-08-19T03:34:28.648Z,20.74
2022-08-19T03:36:58.601Z,20.78
2022-08-19T03:39:28.733Z,20.76
2022-08-19T03:42:30.205Z,20.77
2022-08-19T03:44:50.058Z,20.77
2022-08-19T03:47:17.005Z,20.65
2022-08-19T03:49:43.933Z,20.59
2022-08-19T03:52:10.589Z,20.58
2022-08-19T03:54:38.936Z,20.52
2022-08-19T03:57:05.859Z,20.56
2022-08-19T03:59:36.397Z,20.47
2022-08-19T04:02:10.231Z,20.45
2022-08-19T04:04:38.777Z,20.42
2022-08-19T04:07:05.967Z,20.46
2022-08-19T04:09:35.209Z,20.54
2022-08-19T04:12:01.913Z,20.52
2022-08-19T04:14:33.192Z,20.44
2022-08-19T04:17:00.923Z,20.46
2022-08-19T04:19:30.559Z,20.46
2022-08-19T04:21:57.372Z,20.38
2022-08-19T04:24:24.489Z,20.34
2022-08-19T04:26:52.493Z,20.29
2022-08-19T04:29:23.246Z,20.32
2022-08-19T04:31:50.846Z,20.45
2022-08-19T04:34:25.672Z,20.47
2022-08-19T04:36:54.685Z,20.62
2022-08-19T04:39:44.361Z,20.61
2022-08-19T04:42:40.092Z,20.60
2022-08-19T04:45:14.096Z,20.71
2022-08-19T04:47:47.858Z,20.83
2022-08-19T04:50:29.145Z,20.79
2022-08-19T04:52:57.016Z,20.75
2022-08-19T04:55:26.541Z,20.77
2022-08-19T04:57:53.696Z,20.80
2022-08-19T05:00:20.732Z,20.83
2022-08-19T05:02:47.566Z,20.70
2022-08-19T05:05:15.567Z,20.69
2022-08-19T05:07:42.544Z,20.57
2022-08-19T05:10:09.583Z,20.65
2022-08-19T05:12:36.820Z,20.73
2022-08-19T05:15:06.839Z,20.61
2022-08-19T05:17:38.400Z,20.69
2022-08-19T05:20:25.894Z,20.75
2022-08-19T05:22:53.393Z,20.88
2022-08-19T05:25:21.793Z,20.99
2022-08-19T05:27:49.034Z,21.08
2022-08-19T05:30:17.020Z,20.95
2022-08-19T05:32:43.921Z,20.91
2022-08-19T05:35:10.734Z,20.88
2022-08-19T05:37:37.741Z,20.90
2022-08-19T05:40:05.357Z,20.71
2022-08-19T05:42:32.100Z,20.74
2022-08-19T05:44:59.391Z,20.80
2022-08-19T05:47:26.088Z,20.78
2022-08-19T05:49:52.767Z,20.88
2022-08-19T05:52:25.728Z,21.01
2022-08-19T05:54:57.004Z,21.04
2022-08-19T05:57:25.881Z,21.04
2022-08-19T05:59:58.510Z,20.92
2022-08-19T06:02:31.864Z,20.88
2022-08-19T06:04:58.608Z,20.83
2022-08-19T06:07:25.369Z,20.97
2022-08-19T06:09:59.861Z,21.15
2022-08-19T06:12:35.594Z,21.10
2022-08-19T06:15:13.060Z,21.17
2022-08-19T06:17:39.715Z,21.27
2022-08-19T06:20:09.767Z,21.30
2022-08-19T06:22:41.779Z,21.14
2022-08-19T06:25:10.201Z,21.19
2022-08-19T06:27:41.971Z,21.27
2022-08-19T06:30:15.828Z,21.23
2022-08-19T06:32:43.074Z,21.21
2022-08-19T06:35:09.803Z,21.29
2022-08-19T06:37:39.766Z,21.35
2022-08-19T06:40:09.592Z,21.24
2022-08-19T06:42:36.355Z,21.32
2022-08-19T06:45:09.261Z,21.26
2022-08-19T06:47:36.115Z,21.16
2022-08-19T06:50:05.391Z,21.30
2022-08-19T06:52:34.871Z,21.22
2022-08-19T06:55:06.240Z,21.30
2022-08-19T06:57:33.730Z,21.54
2022-08-19T07:00:07.160Z,21.71
2022-08-19T07:02:37.416Z,21.55
2022-08-19T07:05:06.716Z,21.58
2022-08-19T07:07:34.563Z,21.68
2022-08-19T07:10:03.863Z,21.51
2022-08-19T07:12:38.033Z,21.43
2022-08-19T07:15:10.915Z,21.54
2022-08-19T07:17:40.344Z,21.54
2022-08-19T07:20:10.166Z,21.59
2022-08-19T07:22:40.770Z,21.66
2022-08-19T07:25:09.480Z,21.55
2022-08-19T07:27:39.570Z,21.68
2022-08-19T07:30:07.815Z,21.79
2022-08-19T07:32:38.332Z,21.89
2022-08-19T07:35:06.792Z,21.96
2022-08-19T07:37:34.009Z,21.91
2022-08-19T07:40:02.533Z,22.07
2022-08-19T07:42:30.866Z,22.05
2022-08-19T07:44:59.584Z,22.03
2022-08-19T07:47:48.810Z,22.03
2022-08-19T07:50:15.576Z,22.10
2022-08-19T07:52:48.818Z,22.04
2022-08-19T07:55:42.712Z,22.05
2022-08-19T07:58:06.075Z,21.91
2022-08-19T08:00:33.102Z,21.74
2022-08-19T08:02:59.668Z,21.67
2022-08-19T08:05:44.793Z,21.58
2022-08-19T08:08:33.492Z,21.30
2022-08-19T08:11:01.035Z,21.57
2022-08-19T08:13:28.869Z,21.79
2022-08-19T08:15:56.307Z,21.84
2022-08-19T08:18:27.851Z,22.02
2022-08-19T08:20:58.085Z,21.98
2022-08-19T08:23:27.706Z,21.82
2022-08-19T08:25:57.683Z,22.03
2022-08-19T08:28:25.570Z,21.99
2022-08-19T08:30:52.906Z,22.29
2022-08-19T08:33:29.985Z,22.66
2022-08-19T08:36:01.311Z,22.72
2022-08-19T08:38:38.723Z,22.62
2022-08-19T08:41:23.390Z,22.50
2022-08-19T08:43:53.912Z,22.48
2022-08-19T08:46:41.983Z,22.50
2022-08-19T08:49:21.381Z,22.40
2022-08-19T08:51:59.524Z,22.80
2022-08-19T08:54:34.865Z,23.24
2022-08-19T08:57:05.397Z,23.19
2022-08-19T08:59:37.685Z,22.73
2022-08-19T09:02:04.996Z,22.70
2022-08-19T09:04:31.549Z,22.93
2022-08-19T09:07:00.866Z,22.77
2022-08-19T09:09:43.255Z,22.43
2022-08-19T09:12:39.977Z,22.43
2022-08-19T09:15:12.819Z,22.60
2022-08-19T09:17:40.210Z,22.57
2022-08-19T09:20:11.121Z,22.42
2022-08-19T09:22:39.924Z,22.33
2022-08-19T09:25:08.879Z,22.38
2022-08-19T09:27:42.902Z,22.43
2022-08-19T09:30:17.407Z,22.31
2022-08-19T09:32:46.171Z,22.55
2022-08-19T09:35:14.173Z,22.34
2022-08-19T09:37:41.565Z,22.18
2022-08-19T09:40:11.922Z,22.21
2022-08-19T09:42:39.056Z,22.29
2022-08-19T09:45:22.261Z,22.28
2022-08-19T09:47:54.213Z,22.23
2022-08-19T09:50:22.414Z,22.16
2022-08-19T09:52:53.960Z,22.08
2022-08-19T09:55:22.200Z,22.22
2022-08-19T09:57:50.756Z,22.31
2022-08-19T10:00:17.601Z,22.36
2022-08-19T10:02:44.644Z,22.39
2022-08-19T10:05:31.343Z,22.53
2022-08-19T10:07:58.317Z,22.55
2022-08-19T10:10:25.272Z,22.35
2022-08-19T10:12:53.194Z,22.25
2022-08-19T10:15:28.823Z,22.42
2022-08-19T10:17:56.573Z,22.58
2022-08-19T10:20:25.907Z,22.56
2022-08-19T10:22:53.349Z,22.92
2022-08-19T10:25:20.526Z,23.06
2022-08-19T10:27:51.115Z,23.23
2022-08-19T10:30:18.927Z,23.07
2022-08-19T10:32:48.541Z,23.13
2022-08-19T10:35:22.090Z,23.22
2022-08-19T10:37:57.384Z,23.29
2022-08-19T10:40:29.041Z,23.19
2022-08-19T10:42:57.240Z,23.16
2022-08-19T10:45:26.855Z,23.36
2022-08-19T10:47:57.694Z,23.34
2022-08-19T10:50:43.620Z,23.00
2022-08-19T10:53:10.459Z,22.84
2022-08-19T10:55:56.027Z,22.70
2022-08-19T10:58:27.174Z,22.71
2022-08-19T11:00:56.150Z,22.57
2022-08-19T11:03:23.678Z,22.74
2022-08-19T11:06:01.530Z,22.84
2022-08-19T11:08:28.578Z,22.99
2022-08-19T11:10:58.425Z,22.96
2022-08-19T11:13:25.497Z,23.16
2022-08-19T11:16:07.393Z,23.10
2022-08-19T11:18:44.244Z,23.00
2022-08-19T11:21:18.408Z,23.03
2022-08-19T11:23:46.020Z,22.92
2022-08-19T11:26:12.848Z,22.93
2022-08-19T11:28:39.679Z,22.91
2022-08-19T11:31:14.998Z,22.79
2022-08-19T11:33:42.284Z,22.76
2022-08-19T11:36:15.148Z,22.91
2022-08-19T11:38:41.882Z,22.84
2022-08-19T11:41:09.046Z,22.83
2022-08-19T11:43:37.597Z,22.81
2022-08-19T11:46:10.691Z,22.74
2022-08-19T11:48:38.329Z,22.59
2022-08-19T11:51:07.803Z,22.62
2022-08-19T11:53:35.594Z,22.59
2022-08-19T11:56:03.723Z,22.56
2022-08-19T11:58:30.550Z,22.28
2022-08-19T12:00:57.555Z,22.24
2022-08-19T12:03:24.560Z,21.86
2022-08-19T12:05:51.665Z,21.39
2022-08-19T12:08:19.089Z,21.30
2022-08-19T12:10:46.573Z,21.28
2022-08-19T12:13:19.610Z,21.06
2022-08-19T12:15:48.469Z,20.96
2022-08-19T12:18:16.086Z,20.77
2022-08-19T12:20:44.167Z,20.79
2022-08-19T12:23:11.365Z,20.91
2022-08-19T12:25:51.238Z,21.01
2022-08-19T12:28:21.644Z,21.04
2022-08-19T12:30:51.168Z,21.11
2022-08-19T12:33:19.190Z,21.22
2022-08-19T12:35:47.475Z,21.29
2022-08-19T12:38:15.571Z,21.35
2022-08-19T12:40:42.357Z,21.25
2022-08-19T12:43:09.430Z,21.21
2022-08-19T12:45:36.212Z,21.34
2022-08-19T12:48:32.931Z,21.09
2022-08-19T12:50:52.207Z,21.00
2022-08-19T12:53:18.849Z,20.97
2022-08-19T12:55:45.620Z,21.03
2022-08-19T12:58:13.534Z,20.93
2022-08-19T13:00:40.281Z,20.97
2022-08-19T13:03:06.925Z,20.98
2022-08-19T13:05:35.135Z,21.06
2022-08-19T13:08:01.763Z,21.12
2022-08-19T13:10:35.965Z,21.22
2022-08-19T13:13:06.759Z,21.35
2022-08-19T13:15:40.770Z,21.32
2022-08-19T13:18:10.105Z,21.35
2022-08-19T13:20:37.826Z,21.46
2022-08-19T13:23:05.663Z,21.64
2022-08-19T13:25:32.515Z,21.81
2022-08-19T13:28:00.211Z,21.95
2022-08-19T13:30:45.920Z,21.92
2022-08-19T13:33:12.864Z,21.67
2022-08-19T13:35:57.903Z,21.53
2022-08-19T13:38:25.148Z,21.65
2022-08-19T13:40:53.641Z,21.63
2022-08-19T13:43:27.577Z,21.72
2022-08-19T13:45:56.966Z,21.77
2022-08-19T13:48:27.210Z,21.83
2022-08-19T13:50:55.021Z,21.80
2022-08-19T13:53:21.725Z,21.79
2022-08-19T13:55:52.206Z,21.70
2022-08-19T13:58:19.205Z,21.67
2022-08-19T14:00:47.335Z,21.68
2022-08-19T14:03:14.461Z,21.53
2022-08-19T14:05:41.142Z,21.41
2022-08-19T14:08:08.147Z,21.13
2022-08-19T14:10:35.263Z,21.16
2022-08-19T14:13:03.983Z,21.03
2022-08-19T14:15:32.168Z,20.88
2022-08-19T14:17:59.199Z,20.90
2022-08-19T14:20:26.542Z,20.97
2022-08-19T14:22:54.145Z,21.09
2022-08-19T14:25:26.243Z,21.09
2022-08-19T14:27:53.358Z,21.09
2022-08-19T14:30:26.487Z,21.08
2022-08-19T14:32:53.702Z,21.02
2022-08-19T14:35:22.147Z,20.86
2022-08-19T14:37:56.431Z,20.82
2022-08-19T14:40:26.870Z,20.83
2022-08-19T14:43:05.424Z,20.76
2022-08-19T14:45:34.754Z,20.70
2022-08-19T14:48:03.839Z,20.74
2022-08-19T14:50:30.429Z,20.88
2022-08-19T14:53:05.349Z,20.93
2022-08-19T14:55:42.846Z,20.99
2022-08-19T14:58:09.858Z,21.00
2022-08-19T15:00:56.321Z,20.94
2022-08-19T15:03:22.828Z,20.92
2022-08-19T15:05:49.340Z,20.99
2022-08-19T15:08:15.788Z,20.90
2022-08-19T15:10:42.348Z,20.91
2022-08-19T15:13:10.840Z,20.93
2022-08-19T15:15:38.260Z,20.74
2022-08-19T15:18:04.963Z,20.65
2022-08-19T15:20:31.890Z,20.46
2022-08-19T15:23:00.009Z,20.29
2022-08-19T15:25:28.050Z,20.35
2022-08-19T15:27:55.046Z,20.45
2022-08-19T15:30:27.048Z,20.44
2022-08-19T15:32:54.169Z,20.30
2022-08-19T15:35:21.270Z,20.28
2022-08-19T15:37:52.736Z,20.31
2022-08-19T15:40:21.606Z,20.32
2022-08-19T15:42:49.835Z,20.27
2022-08-19T15:45:18.349Z,20.11
2022-08-19T15:47:45.092Z,20.02
2022-08-19T15:50:23.866Z,19.86
2022-08-19T15:53:01.160Z,19.85
2022-08-19T15:55:34.710Z,19.79
2022-08-19T15:58:28.277Z,19.67
2022-08-19T16:01:23.591Z,19.53
2022-08-19T16:04:13.808Z,19.47
2022-08-19T16:06:45.430Z,19.49
2022-08-19T16:09:13.084Z,19.61
2022-08-19T16:11:39.910Z,19.66
2022-08-19T16:14:09.272Z,19.70
2022-08-19T16:16:36.865Z,19.71
2022-08-19T16:19:10.196Z,19.58
2022-08-19T16:21:41.503Z,19.57
2022-08-19T16:24:10.249Z,19.57
2022-08-19T16:26:36.905Z,19.56
2022-08-19T16:29:08.966Z,19.51
2022-08-19T16:31:39.898Z,19.50
2022-08-19T16:34:06.696Z,19.45
2022-08-19T16:36:34.057Z,19.59
2022-08-19T16:39:01.659Z,19.62
2022-08-19T16:41:28.998Z,19.64
2022-08-19T16:43:56.031Z,19.61
2022-08-19T16:46:23.419Z,19.54
2022-08-19T16:48:53.652Z,19.57
2022-08-19T16:51:20.381Z,19.57
2022-08-19T16:53:46.911Z,19.67
2022-08-19T16:56:13.685Z,19.70
2022-08-19T16:58:40.961Z,19.67
2022-08-19T17:01:10.321Z,19.48
2022-08-19T17:03:39.740Z,19.45
2022-08-19T17:06:20.813Z,19.42
2022-08-19T17:08:50.123Z,19.45
2022-08-19T17:11:19.186Z,19.38
2022-08-19T17:13:47.964Z,19.29
2022-08-19T17:16:17.118Z,19.24
2022-08-19T17:18:45.062Z,19.16
2022-08-19T17:21:13.238Z,19.12
2022-08-19T17:23:42.845Z,19.06
2022-08-19T17:26:16.984Z,19.07
2022-08-19T17:28:49.652Z,19.02
2022-08-19T17:31:18.067Z,18.91
2022-08-19T17:33:48.604Z,18.89
2022-08-19T17:36:22.208Z,18.94
2022-08-19T17:38:49.793Z,18.99
2022-08-19T17:41:17.091Z,18.95
2022-08-19T17:43:44.358Z,19.02
2022-08-19T17:46:18.213Z,19.02
2022-08-19T17:48:52.152Z,19.13
2022-08-19T17:51:42.400Z,19.13
2022-08-19T17:54:13.510Z,19.16
2022-08-19T17:56:42.448Z,19.19
2022-08-19T17:59:14.035Z,19.16
2022-08-19T18:01:52.180Z,19.14
2022-08-19T18:04:23.525Z,19.21
2022-08-19T18:06:53.536Z,19.23
2022-08-19T18:09:41.324Z,19.28
2022-08-19T18:12:11.193Z,19.26
2022-08-19T18:14:41.619Z,19.20
2022-08-19T18:17:13.486Z,19.24
2022-08-19T18:19:43.271Z,19.26
2022-08-19T18:22:33.633Z,19.38
2022-08-19T18:25:01.310Z,19.36
2022-08-19T18:27:28.176Z,19.44
2022-08-19T18:29:58.010Z,19.39
2022-08-19T18:32:26.626Z,19.33
2022-08-19T18:34:54.602Z,19.31
2022-08-19T18:37:21.651Z,19.33
2022-08-19T18:40:06.907Z,19.29
2022-08-19T18:42:52.103Z,19.25
2022-08-19T18:45:37.593Z,19.40
2022-08-19T18:48:26.544Z,19.32
2022-08-19T18:50:55.153Z,19.20
2022-08-19T18:53:21.692Z,19.26
2022-08-19T18:55:53.820Z,19.24
2022-08-19T18:58:25.932Z,19.22
2022-08-19T19:00:54.514Z,19.14
2022-08-19T19:03:21.111Z,19.18
2022-08-19T19:05:48.735Z,19.14
2022-08-19T19:08:15.514Z,19.17
2022-08-19T19:10:42.277Z,19.27
2022-08-19T19:13:09.081Z,19.40
2022-08-19T19:15:36.991Z,19.32
2022-08-19T19:18:03.884Z,19.25
2022-08-19T19:20:36.500Z,19.29
2022-08-19T19:23:04.100Z,19.23
2022-08-19T19:25:50.373Z,19.33
2022-08-19T19:28:25.291Z,19.34
2022-08-19T19:30:53.873Z,19.40
2022-08-19T19:33:20.543Z,19.39
2022-08-19T19:35:47.317Z,19.39
2022-08-19T19:38:14.001Z,19.33
2022-08-19T19:40:40.619Z,19.33
2022-08-19T19:43:10.603Z,19.33
2022-08-19T19:45:38.310Z,19.25
2022-08-19T19:48:05.988Z,19.15
2022-08-19T19:50:32.611Z,19.20
2022-08-19T19:53:00.553Z,19.22
2022-08-19T19:55:29.233Z,19.22
2022-08-19T19:57:57.668Z,19.20
2022-08-19T20:00:25.431Z,19.09
2022-08-19T20:02:55.374Z,19.00
2022-08-19T20:05:23.067Z,18.78
2022-08-19T20:08:10.194Z,18.69
2022-08-19T20:10:37.673Z,18.75
2022-08-19T20:13:05.245Z,18.72
2022-08-19T20:15:32.291Z,18.70
2022-08-19T20:18:04.158Z,18.85
2022-08-19T20:20:31.698Z,19.01
2022-08-19T20:22:58.662Z,19.08
2022-08-19T20:25:25.289Z,19.13
2022-08-19T20:27:52.053Z,19.08
2022-08-19T20:30:21.654Z,18.98
2022-08-19T20:32:50.542Z,19.04
2022-08-19T20:35:19.853Z,19.03
2022-08-19T20:37:46.626Z,18.96
2022-08-19T20:40:14.901Z,18.94
2022-08-19T20:42:43.223Z,19.03
2022-08-19T20:45:21.561Z,19.08
2022-08-19T20:47:58.939Z,19.03
2022-08-19T20:50:26.026Z,18.97
2022-08-19T20:52:56.562Z,19.01
2022-08-19T20:55:23.240Z,18.96
2022-08-19T20:57:49.875Z,19.07
2022-08-19T21:00:16.602Z,19.11
2022-08-19T21:02:43.104Z,19.18
2022-08-19T21:05:09.673Z,19.06
2022-08-19T21:07:39.017Z,19.06
2022-08-19T21:10:07.121Z,18.99
2022-08-19T21:12:33.908Z,19.01
2022-08-19T21:15:01.140Z,18.99
2022-08-19T21:17:28.221Z,18.96
2022-08-19T21:19:56.078Z,18.87
2022-08-19T21:22:31.282Z,18.95
2022-08-19T21:24:58.525Z,19.01
2022-08-19T21:27:31.698Z,18.98
2022-08-19T21:30:02.147Z,19.00
2022-08-19T21:32:30.821Z,18.99
2022-08-19T21:34:57.602Z,19.04
2022-08-19T21:37:26.156Z,18.86
2022-08-19T21:39:56.970Z,18.91
2022-08-19T21:42:24.246Z,18.96
2022-08-19T21:44:54.495Z,18.99
2022-08-19T21:47:21.376Z,18.88
2022-08-19T21:49:48.582Z,18.89
2022-08-19T21:52:22.044Z,18.82
2022-08-19T21:54:48.862Z,18.91
2022-08-19T21:57:15.971Z,18.92
2022-08-19T21:59:44.169Z,18.96
2022-08-19T22:02:20.367Z,19.00
2022-08-19T22:04:49.824Z,18.99
2022-08-19T22:07:16.522Z,18.99
2022-08-19T22:09:45.529Z,18.94
2022-08-19T22:12:31.674Z,18.95
2022-08-19T22:15:00.116Z,18.97
2022-08-19T22:17:29.986Z,18.83
2022-08-19T22:19:57.374Z,18.89
2022-08-19T22:22:27.669Z,18.95
2022-08-19T22:25:00.048Z,18.99
2022-08-19T22:27:26.705Z,18.96
2022-08-19T22:29:53.428Z,18.90
2022-08-19T22:32:28.046Z,18.89
2022-08-19T22:34:57.694Z,18.77
2022-08-19T22:37:24.484Z,18.72
2022-08-19T22:39:51.106Z,18.74
2022-08-19T22:42:20.209Z,18.75
2022-08-19T22:44:46.783Z,18.73
2022-08-19T22:47:13.637Z,18.74
2022-08-19T22:49:40.415Z,18.79
2022-08-19T22:52:18.308Z,18.73
2022-08-19T22:54:54.010Z,18.74
2022-08-19T22:57:21.897Z,18.77
2022-08-19T22:59:50.541Z,18.79
2022-08-19T23:02:31.318Z,18.70
2022-08-19T23:05:02.467Z,18.58
2022-08-19T23:07:29.554Z,18.52
2022-08-19T23:09:56.438Z,18.55
2022-08-19T23:12:30.589Z,18.58
2022-08-19T23:15:12.964Z,18.65
2022-08-19T23:17:40.861Z,18.64
2022-08-19T23:20:14.292Z,18.67
2022-08-19T23:22:42.856Z,18.55
2022-08-19T23:25:13.151Z,18.47
2022-08-19T23:27:58.462Z,18.41
2022-08-19T23:30:27.603Z,18.35
2022-08-19T23:33:12.353Z,18.35
2022-08-19T23:35:41.165Z,18.36
2022-08-19T23:38:09.276Z,18.31
2022-08-19T23:40:38.743Z,18.36
2022-08-19T23:43:08.209Z,18.35
2022-08-19T23:45:40.758Z,18.36
2022-08-19T23:48:18.250Z,18.37
2022-08-19T23:50:45.134Z,18.42
2022-08-19T23:53:14.100Z,18.35
2022-08-19T23:55:44.213Z,18.38
2022-08-19T23:58:16.249Z,18.36
